sensor_id;sensor_type;location;lat;lon;timestamp;P1;durP1;ratioP1;P2;durP2;ratioP2
56037;SDS011;41907;47.848;9.000;2022-08-21T00:00:13;1.80;;;1.60;;
56037;SDS011;41907;47.848;9.000;2022-08-21T00:02:46;2.25;;;1.60;;
56037;SDS011;41907;47.848;9.000;2022-08-21T00:05:17;2.17;;;1.50;;
56037;SDS011;41907;47.848;9.000;2022-08-21T00:07:43;2.22;;;1.42;;
56037;SDS011;41907;47.848;9.000;2022-08-21T00:10:09;3.35;;;1.98;;
56037;SDS011;41907;47.848;9.000;2022-08-21T00:12:36;1.35;;;1.20;;
56037;SDS011;41907;47.848;9.000;2022-08-21T00:15:03;3.78;;;1.70;;
56037;SDS011;41907;47.848;9.000;2022-08-21T00:17:30;2.35;;;1.45;;
56037;SDS011;41907;47.848;9.000;2022-08-21T00:19:56;1.55;;;1.25;;
56037;SDS011;41907;47.848;9.000;2022-08-21T00:22:21;1.60;;;1.38;;
56037;SDS011;41907;47.848;9.000;2022-08-21T00:24:46;1.38;;;1.25;;
56037;SDS011;41907;47.848;9.000;2022-08-21T00:27:12;1.67;;;1.10;;
56037;SDS011;41907;47.848;9.000;2022-08-21T00:29:37;1.23;;;1.13;;
56037;SDS011;41907;47.848;9.000;2022-08-21T00:32:02;1.83;;;1.27;;
56037;SDS011;41907;47.848;9.000;2022-08-21T00:34:28;2.38;;;1.67;;
56037;SDS011;41907;47.848;9.000;2022-08-21T00:36:53;2.13;;;1.52;;
56037;SDS011;41907;47.848;9.000;2022-08-21T00:39:18;1.33;;;1.10;;
56037;SDS011;41907;47.848;9.000;2022-08-21T00:41:44;2.97;;;1.52;;
56037;SDS011;41907;47.848;9.000;2022-08-21T00:44:10;1.80;;;1.45;;
56037;SDS011;41907;47.848;9.000;2022-08-21T00:46:38;1.48;;;1.30;;
56037;SDS011;41907;47.848;9.000;2022-08-21T00:49:05;1.50;;;1.40;;
56037;SDS011;41907;47.848;9.000;2022-08-21T00:51:51;4.20;;;1.55;;
56037;SDS011;41907;47.848;9.000;2022-08-21T00:54:21;2.28;;;1.30;;
56037;SDS011;41907;47.848;9.000;2022-08-21T00:56:50;1.40;;;1.30;;
56037;SDS011;41907;47.848;9.000;2022-08-21T00:59:22;1.75;;;1.10;;
56037;SDS011;41907;47.848;9.000;2022-08-21T01:01:48;3.10;;;1.63;;
56037;SDS011;41907;47.848;9.000;2022-08-21T01:04:14;1.67;;;1.17;;
56037;SDS011;41907;47.848;9.000;2022-08-21T01:06:41;1.30;;;1.20;;
56037;SDS011;41907;47.848;9.000;2022-08-21T01:09:07;1.95;;;1.33;;
56037;SDS011;41907;47.848;9.000;2022-08-21T01:11:33;1.42;;;0.98;;
56037;SDS011;41907;47.848;9.000;2022-08-21T01:13:59;0.88;;;0.80;;
56037;SDS011;41907;47.848;9.000;2022-08-21T01:16:25;1.10;;;0.90;;
56037;SDS011;41907;47.848;9.000;2022-08-21T01:18:51;1.40;;;1.00;;
56037;SDS011;41907;47.848;9.000;2022-08-21T01:21:19;1.65;;;1.15;;
56037;SDS011;41907;47.848;9.000;2022-08-21T01:23:51;0.68;;;0.68;;
56037;SDS011;41907;47.848;9.000;2022-08-21T01:26:21;0.70;;;0.68;;
56037;SDS011;41907;47.848;9.000;2022-08-21T01:28:50;1.35;;;0.80;;
56037;SDS011;41907;47.848;9.000;2022-08-21T01:31:22;0.80;;;0.80;;
56037;SDS011;41907;47.848;9.000;2022-08-21T01:33:50;1.10;;;0.90;;
56037;SDS011;41907;47.848;9.000;2022-08-21T01:36:16;1.20;;;0.90;;
56037;SDS011;41907;47.848;9.000;2022-08-21T01:38:41;0.95;;;0.85;;
56037;SDS011;41907;47.848;9.000;2022-08-21T01:41:07;2.05;;;1.63;;
56037;SDS011;41907;47.848;9.000;2022-08-21T01:43:32;1.50;;;1.10;;
56037;SDS011;41907;47.848;9.000;2022-08-21T01:45:58;1.20;;;1.10;;
56037;SDS011;41907;47.848;9.000;2022-08-21T01:48:23;1.13;;;0.90;;
56037;SDS011;41907;47.848;9.000;2022-08-21T01:50:49;1.42;;;1.23;;
56037;SDS011;41907;47.848;9.000;2022-08-21T01:53:14;1.15;;;1.05;;
56037;SDS011;41907;47.848;9.000;2022-08-21T01:55:40;0.60;;;0.60;;
56037;SDS011;41907;47.848;9.000;2022-08-21T01:58:07;1.13;;;1.02;;
56037;SDS011;41907;47.848;9.000;2022-08-21T02:00:32;2.22;;;1.08;;
56037;SDS011;41907;47.848;9.000;2022-08-21T02:02:58;1.90;;;1.20;;
56037;SDS011;41907;47.848;9.000;2022-08-21T02:05:23;2.20;;;1.17;;
56037;SDS011;41907;47.848;9.000;2022-08-21T02:07:50;1.27;;;1.13;;
56037;SDS011;41907;47.848;9.000;2022-08-21T02:10:19;1.90;;;1.25;;
56037;SDS011;41907;47.848;9.000;2022-08-21T02:12:47;1.40;;;1.30;;
56037;SDS011;41907;47.848;9.000;2022-08-21T02:15:12;1.42;;;1.20;;
56037;SDS011;41907;47.848;9.000;2022-08-21T02:17:49;1.92;;;1.40;;
56037;SDS011;41907;47.848;9.000;2022-08-21T02:20:30;1.95;;;1.25;;
56037;SDS011;41907;47.848;9.000;2022-08-21T02:23:00;1.85;;;1.05;;
56037;SDS011;41907;47.848;9.000;2022-08-21T02:25:26;0.82;;;0.82;;
56037;SDS011;41907;47.848;9.000;2022-08-21T02:27:53;1.73;;;1.05;;
56037;SDS011;41907;47.848;9.000;2022-08-21T02:30:21;0.98;;;0.85;;
56037;SDS011;41907;47.848;9.000;2022-08-21T02:32:52;0.82;;;0.77;;
56037;SDS011;41907;47.848;9.000;2022-08-21T02:35:17;0.93;;;0.85;;
56037;SDS011;41907;47.848;9.000;2022-08-21T02:37:45;0.75;;;0.70;;
56037;SDS011;41907;47.848;9.000;2022-08-21T02:40:23;2.50;;;1.08;;
56037;SDS011;41907;47.848;9.000;2022-08-21T02:42:51;1.83;;;0.90;;
56037;SDS011;41907;47.848;9.000;2022-08-21T02:45:17;2.33;;;0.80;;
56037;SDS011;41907;47.848;9.000;2022-08-21T02:47:53;0.70;;;0.70;;
56037;SDS011;41907;47.848;9.000;2022-08-21T02:50:22;0.95;;;0.88;;
56037;SDS011;41907;47.848;9.000;2022-08-21T02:52:50;1.63;;;1.10;;
56037;SDS011;41907;47.848;9.000;2022-08-21T02:55:17;1.23;;;1.10;;
56037;SDS011;41907;47.848;9.000;2022-08-21T02:57:47;1.05;;;0.95;;
56037;SDS011;41907;47.848;9.000;2022-08-21T03:00:13;1.63;;;1.30;;
56037;SDS011;41907;47.848;9.000;2022-08-21T03:02:39;0.90;;;0.80;;
56037;SDS011;41907;47.848;9.000;2022-08-21T03:05:05;0.98;;;0.95;;
56037;SDS011;41907;47.848;9.000;2022-08-21T03:07:32;2.80;;;0.90;;
56037;SDS011;41907;47.848;9.000;2022-08-21T03:09:57;1.45;;;0.88;;
56037;SDS011;41907;47.848;9.000;2022-08-21T03:12:23;3.42;;;0.90;;
56037;SDS011;41907;47.848;9.000;2022-08-21T03:14:49;1.38;;;1.00;;
56037;SDS011;41907;47.848;9.000;2022-08-21T03:17:14;1.17;;;0.93;;
56037;SDS011;41907;47.848;9.000;2022-08-21T03:19:39;1.58;;;0.90;;
56037;SDS011;41907;47.848;9.000;2022-08-21T03:22:05;1.40;;;1.30;;
56037;SDS011;41907;47.848;9.000;2022-08-21T03:24:31;1.10;;;1.00;;
56037;SDS011;41907;47.848;9.000;2022-08-21T03:26:56;1.10;;;1.00;;
56037;SDS011;41907;47.848;9.000;2022-08-21T03:29:21;1.38;;;0.77;;
56037;SDS011;41907;47.848;9.000;2022-08-21T03:31:47;2.72;;;1.25;;
56037;SDS011;41907;47.848;9.000;2022-08-21T03:34:12;0.68;;;0.68;;
56037;SDS011;41907;47.848;9.000;2022-08-21T03:36:38;1.00;;;0.90;;
56037;SDS011;41907;47.848;9.000;2022-08-21T03:39:03;1.27;;;1.02;;
56037;SDS011;41907;47.848;9.000;2022-08-21T03:41:28;1.92;;;1.60;;
56037;SDS011;41907;47.848;9.000;2022-08-21T03:43:54;2.92;;;1.55;;
56037;SDS011;41907;47.848;9.000;2022-08-21T03:46:20;2.08;;;1.17;;
56037;SDS011;41907;47.848;9.000;2022-08-21T03:48:45;3.70;;;1.25;;
56037;SDS011;41907;47.848;9.000;2022-08-21T03:51:10;2.63;;;1.50;;
56037;SDS011;41907;47.848;9.000;2022-08-21T03:53:37;2.63;;;1.48;;
56037;SDS011;41907;47.848;9.000;2022-08-21T03:56:03;3.13;;;1.42;;
56037;SDS011;41907;47.848;9.000;2022-08-21T03:58:29;2.60;;;1.27;;
56037;SDS011;41907;47.848;9.000;2022-08-21T04:00:56;3.38;;;1.55;;
56037;SDS011;41907;47.848;9.000;2022-08-21T04:03:23;3.35;;;1.55;;
56037;SDS011;41907;47.848;9.000;2022-08-21T04:05:50;2.58;;;1.40;;
56037;SDS011;41907;47.848;9.000;2022-08-21T04:08:16;3.65;;;2.17;;
56037;SDS011;41907;47.848;9.000;2022-08-21T04:10:43;3.47;;;1.63;;
56037;SDS011;41907;47.848;9.000;2022-08-21T04:13:11;3.42;;;1.38;;
56037;SDS011;41907;47.848;9.000;2022-08-21T04:15:37;2.97;;;1.90;;
56037;SDS011;41907;47.848;9.000;2022-08-21T04:18:03;5.97;;;2.05;;
56037;SDS011;41907;47.848;9.000;2022-08-21T04:20:29;4.13;;;1.60;;
56037;SDS011;41907;47.848;9.000;2022-08-21T04:22:55;6.38;;;1.77;;
56037;SDS011;41907;47.848;9.000;2022-08-21T04:25:21;6.03;;;2.28;;
56037;SDS011;41907;47.848;9.000;2022-08-21T04:27:50;8.02;;;2.40;;
56037;SDS011;41907;47.848;9.000;2022-08-21T04:30:16;6.65;;;2.65;;
56037;SDS011;41907;47.848;9.000;2022-08-21T04:32:45;5.03;;;2.67;;
56037;SDS011;41907;47.848;9.000;2022-08-21T04:35:12;6.57;;;2.92;;
56037;SDS011;41907;47.848;9.000;2022-08-21T04:37:39;4.78;;;2.65;;
56037;SDS011;41907;47.848;9.000;2022-08-21T04:40:05;5.30;;;3.17;;
56037;SDS011;41907;47.848;9.000;2022-08-21T04:42:31;5.50;;;3.22;;
56037;SDS011;41907;47.848;9.000;2022-08-21T04:44:57;5.22;;;2.75;;
56037;SDS011;41907;47.848;9.000;2022-08-21T04:47:23;7.13;;;2.63;;
56037;SDS011;41907;47.848;9.000;2022-08-21T04:49:49;5.22;;;2.60;;
56037;SDS011;41907;47.848;9.000;2022-08-21T04:52:16;5.20;;;2.83;;
56037;SDS011;41907;47.848;9.000;2022-08-21T04:54:46;7.07;;;3.00;;
56037;SDS011;41907;47.848;9.000;2022-08-21T04:57:13;9.40;;;2.63;;
56037;SDS011;41907;47.848;9.000;2022-08-21T04:59:42;9.45;;;3.75;;
56037;SDS011;41907;47.848;9.000;2022-08-21T05:02:10;5.32;;;2.85;;
56037;SDS011;41907;47.848;9.000;2022-08-21T05:04:38;4.82;;;2.38;;
56037;SDS011;41907;47.848;9.000;2022-08-21T05:07:09;5.35;;;3.10;;
56037;SDS011;41907;47.848;9.000;2022-08-21T05:09:37;5.35;;;2.45;;
56037;SDS011;41907;47.848;9.000;2022-08-21T05:12:03;5.18;;;2.80;;
56037;SDS011;41907;47.848;9.000;2022-08-21T05:14:29;4.60;;;2.42;;
56037;SDS011;41907;47.848;9.000;2022-08-21T05:16:55;5.70;;;2.75;;
56037;SDS011;41907;47.848;9.000;2022-08-21T05:19:20;4.97;;;2.83;;
56037;SDS011;41907;47.848;9.000;2022-08-21T05:21:46;6.30;;;2.70;;
56037;SDS011;41907;47.848;9.000;2022-08-21T05:24:14;7.18;;;2.63;;
56037;SDS011;41907;47.848;9.000;2022-08-21T05:26:40;7.38;;;2.53;;
56037;SDS011;41907;47.848;9.000;2022-08-21T05:29:06;4.88;;;2.25;;
56037;SDS011;41907;47.848;9.000;2022-08-21T05:31:31;5.88;;;2.70;;
56037;SDS011;41907;47.848;9.000;2022-08-21T05:33:57;5.15;;;2.78;;
56037;SDS011;41907;47.848;9.000;2022-08-21T05:36:22;4.15;;;2.53;;
56037;SDS011;41907;47.848;9.000;2022-08-21T05:38:48;2.65;;;1.90;;
56037;SDS011;41907;47.848;9.000;2022-08-21T05:41:13;4.38;;;2.50;;
56037;SDS011;41907;47.848;9.000;2022-08-21T05:43:39;3.42;;;1.70;;
56037;SDS011;41907;47.848;9.000;2022-08-21T05:46:05;4.22;;;1.73;;
56037;SDS011;41907;47.848;9.000;2022-08-21T05:48:32;5.10;;;1.75;;
56037;SDS011;41907;47.848;9.000;2022-08-21T05:51:03;6.90;;;2.60;;
56037;SDS011;41907;47.848;9.000;2022-08-21T05:53:30;5.68;;;2.80;;
56037;SDS011;41907;47.848;9.000;2022-08-21T05:55:56;5.07;;;2.38;;
56037;SDS011;41907;47.848;9.000;2022-08-21T05:58:21;4.88;;;2.33;;
56037;SDS011;41907;47.848;9.000;2022-08-21T06:00:48;4.65;;;2.20;;
56037;SDS011;41907;47.848;9.000;2022-08-21T06:03:17;6.55;;;2.38;;
56037;SDS011;41907;47.848;9.000;2022-08-21T06:05:45;6.03;;;2.60;;
56037;SDS011;41907;47.848;9.000;2022-08-21T06:08:10;4.80;;;2.28;;
56037;SDS011;41907;47.848;9.000;2022-08-21T06:10:36;7.93;;;2.67;;
56037;SDS011;41907;47.848;9.000;2022-08-21T06:13:02;5.93;;;2.90;;
56037;SDS011;41907;47.848;9.000;2022-08-21T06:15:27;5.22;;;2.55;;
56037;SDS011;41907;47.848;9.000;2022-08-21T06:17:54;5.60;;;3.25;;
56037;SDS011;41907;47.848;9.000;2022-08-21T06:20:19;5.80;;;2.30;;
56037;SDS011;41907;47.848;9.000;2022-08-21T06:22:45;11.57;;;2.80;;
56037;SDS011;41907;47.848;9.000;2022-08-21T06:25:11;6.38;;;2.95;;
56037;SDS011;41907;47.848;9.000;2022-08-21T06:27:36;6.35;;;2.28;;
56037;SDS011;41907;47.848;9.000;2022-08-21T06:30:02;4.97;;;2.67;;
56037;SDS011;41907;47.848;9.000;2022-08-21T06:32:31;5.53;;;2.80;;
56037;SDS011;41907;47.848;9.000;2022-08-21T06:34:57;3.78;;;2.40;;
56037;SDS011;41907;47.848;9.000;2022-08-21T06:37:22;4.13;;;2.33;;
56037;SDS011;41907;47.848;9.000;2022-08-21T06:39:47;3.35;;;2.30;;
56037;SDS011;41907;47.848;9.000;2022-08-21T06:42:16;3.78;;;2.15;;
56037;SDS011;41907;47.848;9.000;2022-08-21T06:44:42;2.35;;;1.58;;
56037;SDS011;41907;47.848;9.000;2022-08-21T06:47:08;2.83;;;1.83;;
56037;SDS011;41907;47.848;9.000;2022-08-21T06:49:34;4.35;;;1.95;;
56037;SDS011;41907;47.848;9.000;2022-08-21T06:52:00;3.20;;;2.15;;
56037;SDS011;41907;47.848;9.000;2022-08-21T06:54:26;3.08;;;2.22;;
56037;SDS011;41907;47.848;9.000;2022-08-21T06:56:51;2.45;;;2.03;;
56037;SDS011;41907;47.848;9.000;2022-08-21T06:59:17;4.07;;;2.55;;
56037;SDS011;41907;47.848;9.000;2022-08-21T07:01:43;4.05;;;1.73;;
56037;SDS011;41907;47.848;9.000;2022-08-21T07:04:09;2.88;;;1.65;;
56037;SDS011;41907;47.848;9.000;2022-08-21T07:06:35;3.55;;;2.50;;
56037;SDS011;41907;47.848;9.000;2022-08-21T07:09:01;2.40;;;1.60;;
56037;SDS011;41907;47.848;9.000;2022-08-21T07:11:27;2.30;;;1.95;;
56037;SDS011;41907;47.848;9.000;2022-08-21T07:13:53;3.15;;;2.08;;
56037;SDS011;41907;47.848;9.000;2022-08-21T07:16:20;1.77;;;1.60;;
56037;SDS011;41907;47.848;9.000;2022-08-21T07:18:46;2.38;;;1.70;;
56037;SDS011;41907;47.848;9.000;2022-08-21T07:21:11;2.75;;;1.98;;
56037;SDS011;41907;47.848;9.000;2022-08-21T07:23:38;3.10;;;2.13;;
56037;SDS011;41907;47.848;9.000;2022-08-21T07:26:06;2.25;;;1.60;;
56037;SDS011;41907;47.848;9.000;2022-08-21T07:28:32;2.90;;;2.28;;
56037;SDS011;41907;47.848;9.000;2022-08-21T07:30:59;2.55;;;2.00;;
56037;SDS011;41907;47.848;9.000;2022-08-21T07:33:26;3.22;;;1.80;;
56037;SDS011;41907;47.848;9.000;2022-08-21T07:35:53;4.85;;;2.03;;
56037;SDS011;41907;47.848;9.000;2022-08-21T07:38:18;2.72;;;2.00;;
56037;SDS011;41907;47.848;9.000;2022-08-21T07:40:45;4.32;;;2.22;;
56037;SDS011;41907;47.848;9.000;2022-08-21T07:43:11;2.00;;;1.75;;
56037;SDS011;41907;47.848;9.000;2022-08-21T07:45:37;2.22;;;2.00;;
56037;SDS011;41907;47.848;9.000;2022-08-21T07:48:03;1.70;;;1.45;;
56037;SDS011;41907;47.848;9.000;2022-08-21T07:50:28;2.80;;;2.03;;
56037;SDS011;41907;47.848;9.000;2022-08-21T07:52:54;5.57;;;2.78;;
56037;SDS011;41907;47.848;9.000;2022-08-21T07:55:19;5.05;;;2.72;;
56037;SDS011;41907;47.848;9.000;2022-08-21T07:57:47;2.28;;;1.95;;
56037;SDS011;41907;47.848;9.000;2022-08-21T08:00:15;2.75;;;2.10;;
56037;SDS011;41907;47.848;9.000;2022-08-21T08:02:44;2.80;;;2.08;;
56037;SDS011;41907;47.848;9.000;2022-08-21T08:05:11;2.53;;;2.08;;
56037;SDS011;41907;47.848;9.000;2022-08-21T08:07:37;3.80;;;2.60;;
56037;SDS011;41907;47.848;9.000;2022-08-21T08:10:04;4.85;;;3.58;;
56037;SDS011;41907;47.848;9.000;2022-08-21T08:12:32;4.60;;;2.88;;
56037;SDS011;41907;47.848;9.000;2022-08-21T08:14:59;2.83;;;2.53;;
56037;SDS011;41907;47.848;9.000;2022-08-21T08:17:25;5.25;;;2.63;;
56037;SDS011;41907;47.848;9.000;2022-08-21T08:19:52;3.95;;;3.10;;
56037;SDS011;41907;47.848;9.000;2022-08-21T08:22:18;3.90;;;2.55;;
56037;SDS011;41907;47.848;9.000;2022-08-21T08:24:46;4.78;;;2.70;;
56037;SDS011;41907;47.848;9.000;2022-08-21T08:27:12;3.20;;;2.50;;
56037;SDS011;41907;47.848;9.000;2022-08-21T08:29:37;3.30;;;2.30;;
56037;SDS011;41907;47.848;9.000;2022-08-21T08:32:03;6.85;;;3.30;;
56037;SDS011;41907;47.848;9.000;2022-08-21T08:34:32;3.70;;;2.40;;
56037;SDS011;41907;47.848;9.000;2022-08-21T08:36:58;3.67;;;2.70;;
56037;SDS011;41907;47.848;9.000;2022-08-21T08:39:23;2.80;;;2.20;;
56037;SDS011;41907;47.848;9.000;2022-08-21T08:41:49;3.78;;;2.88;;
56037;SDS011;41907;47.848;9.000;2022-08-21T08:44:24;3.10;;;2.70;;
56037;SDS011;41907;47.848;9.000;2022-08-21T08:46:50;3.75;;;3.42;;
56037;SDS011;41907;47.848;9.000;2022-08-21T08:49:24;4.00;;;3.50;;
56037;SDS011;41907;47.848;9.000;2022-08-21T08:54:43;3.90;;;2.88;;
56037;SDS011;41907;47.848;9.000;2022-08-21T08:57:15;2.22;;;2.03;;
56037;SDS011;41907;47.848;9.000;2022-08-21T08:59:44;2.95;;;2.22;;
56037;SDS011;41907;47.848;9.000;2022-08-21T09:02:13;2.65;;;2.45;;
56037;SDS011;41907;47.848;9.000;2022-08-21T09:04:40;5.50;;;3.88;;
56037;SDS011;41907;47.848;9.000;2022-08-21T09:13:48;4.38;;;3.97;;
56037;SDS011;41907;47.848;9.000;2022-08-21T09:21:47;4.13;;;3.25;;
56037;SDS011;41907;47.848;9.000;2022-08-21T09:24:39;4.28;;;3.88;;
56037;SDS011;41907;47.848;9.000;2022-08-21T09:27:16;3.30;;;3.00;;
56037;SDS011;41907;47.848;9.000;2022-08-21T09:29:54;3.97;;;3.58;;
56037;SDS011;41907;47.848;9.000;2022-08-21T09:32:23;3.92;;;3.10;;
56037;SDS011;41907;47.848;9.000;2022-08-21T09:34:55;6.90;;;4.10;;
56037;SDS011;41907;47.848;9.000;2022-08-21T09:37:24;2.83;;;2.47;;
56037;SDS011;41907;47.848;9.000;2022-08-21T09:39:50;3.30;;;2.30;;
56037;SDS011;41907;47.848;9.000;2022-08-21T09:42:23;3.30;;;2.80;;
56037;SDS011;41907;47.848;9.000;2022-08-21T09:45:04;2.00;;;1.63;;
56037;SDS011;41907;47.848;9.000;2022-08-21T09:47:32;2.50;;;1.40;;
56037;SDS011;41907;47.848;9.000;2022-08-21T09:50:06;1.83;;;1.50;;
56037;SDS011;41907;47.848;9.000;2022-08-21T09:52:33;2.08;;;1.33;;
56037;SDS011;41907;47.848;9.000;2022-08-21T09:54:59;2.70;;;1.40;;
56037;SDS011;41907;47.848;9.000;2022-08-21T09:57:26;2.88;;;1.25;;
56037;SDS011;41907;47.848;9.000;2022-08-21T10:00:28;0.98;;;0.98;;
56037;SDS011;41907;47.848;9.000;2022-08-21T10:03:12;1.40;;;1.30;;
56037;SDS011;41907;47.848;9.000;2022-08-21T10:05:39;2.50;;;1.10;;
56037;SDS011;41907;47.848;9.000;2022-08-21T10:08:18;1.45;;;1.10;;
56037;SDS011;41907;47.848;9.000;2022-08-21T10:10:45;1.70;;;1.10;;
56037;SDS011;41907;47.848;9.000;2022-08-21T10:13:16;1.35;;;1.10;;
56037;SDS011;41907;47.848;9.000;2022-08-21T10:21:23;0.80;;;0.80;;
56037;SDS011;41907;47.848;9.000;2022-08-21T10:26:32;1.80;;;0.90;;
56037;SDS011;41907;47.848;9.000;2022-08-21T10:29:09;2.25;;;0.75;;
56037;SDS011;41907;47.848;9.000;2022-08-21T10:34:22;1.42;;;1.25;;
56037;SDS011;41907;47.848;9.000;2022-08-21T10:39:33;1.35;;;0.70;;
56037;SDS011;41907;47.848;9.000;2022-08-21T10:42:09;1.65;;;1.10;;
56037;SDS011;41907;47.848;9.000;2022-08-21T10:47:54;4.38;;;3.08;;
56037;SDS011;41907;47.848;9.000;2022-08-21T10:58:24;1.88;;;0.70;;
56037;SDS011;41907;47.848;9.000;2022-08-21T11:00:58;0.57;;;0.50;;
56037;SDS011;41907;47.848;9.000;2022-08-21T11:03:46;0.98;;;0.90;;
56037;SDS011;41907;47.848;9.000;2022-08-21T11:06:24;0.55;;;0.55;;
56037;SDS011;41907;47.848;9.000;2022-08-21T11:08:56;0.88;;;0.68;;
56037;SDS011;41907;47.848;9.000;2022-08-21T11:11:29;0.73;;;0.60;;
56037;SDS011;41907;47.848;9.000;2022-08-21T11:16:57;0.77;;;0.77;;
56037;SDS011;41907;47.848;9.000;2022-08-21T11:19:32;0.70;;;0.70;;
56037;SDS011;41907;47.848;9.000;2022-08-21T11:22:12;3.38;;;0.85;;
56037;SDS011;41907;47.848;9.000;2022-08-21T11:24:54;1.20;;;0.52;;
56037;SDS011;41907;47.848;9.000;2022-08-21T11:27:40;0.50;;;0.50;;
56037;SDS011;41907;47.848;9.000;2022-08-21T11:30:10;1.20;;;0.70;;
56037;SDS011;41907;47.848;9.000;2022-08-21T11:32:49;0.65;;;0.50;;
56037;SDS011;41907;47.848;9.000;2022-08-21T11:48:36;2.53;;;0.80;;
56037;SDS011;41907;47.848;9.000;2022-08-21T11:51:12;0.50;;;0.50;;
56037;SDS011;41907;47.848;9.000;2022-08-21T11:53:47;1.48;;;0.55;;
56037;SDS011;41907;47.848;9.000;2022-08-21T11:59:11;1.23;;;0.60;;
56037;SDS011;41907;47.848;9.000;2022-08-21T12:01:46;1.67;;;0.88;;
56037;SDS011;41907;47.848;9.000;2022-08-21T12:06:41;1.08;;;0.60;;
56037;SDS011;41907;47.848;9.000;2022-08-21T12:09:28;0.70;;;0.70;;
56037;SDS011;41907;47.848;9.000;2022-08-21T12:17:38;2.83;;;0.68;;
56037;SDS011;41907;47.848;9.000;2022-08-21T12:20:16;1.42;;;0.57;;
56037;SDS011;41907;47.848;9.000;2022-08-21T12:23:05;0.50;;;0.47;;
56037;SDS011;41907;47.848;9.000;2022-08-21T12:25:46;0.63;;;0.55;;
56037;SDS011;41907;47.848;9.000;2022-08-21T12:28:23;0.50;;;0.50;;
56037;SDS011;41907;47.848;9.000;2022-08-21T12:30:49;0.90;;;0.52;;
56037;SDS011;41907;47.848;9.000;2022-08-21T12:35:49;0.65;;;0.57;;
56037;SDS011;41907;47.848;9.000;2022-08-21T12:38:18;0.70;;;0.70;;
56037;SDS011;41907;47.848;9.000;2022-08-21T12:43:17;0.50;;;0.50;;
56037;SDS011;41907;47.848;9.000;2022-08-21T12:45:47;0.73;;;0.50;;
56037;SDS011;41907;47.848;9.000;2022-08-21T12:48:16;1.75;;;0.60;;
56037;SDS011;41907;47.848;9.000;2022-08-21T12:56:11;1.15;;;0.60;;
56037;SDS011;41907;47.848;9.000;2022-08-21T12:58:45;0.57;;;0.40;;
56037;SDS011;41907;47.848;9.000;2022-08-21T13:01:23;0.28;;;0.28;;
56037;SDS011;41907;47.848;9.000;2022-08-21T13:03:54;0.40;;;0.40;;
56037;SDS011;41907;47.848;9.000;2022-08-21T13:06:22;1.02;;;0.47;;
56037;SDS011;41907;47.848;9.000;2022-08-21T13:08:50;0.70;;;0.65;;
56037;SDS011;41907;47.848;9.000;2022-08-21T13:11:21;0.38;;;0.38;;
56037;SDS011;41907;47.848;9.000;2022-08-21T13:13:48;0.40;;;0.40;;
56037;SDS011;41907;47.848;9.000;2022-08-21T13:16:20;0.40;;;0.40;;
56037;SDS011;41907;47.848;9.000;2022-08-21T13:18:54;0.52;;;0.50;;
56037;SDS011;41907;47.848;9.000;2022-08-21T13:21:28;1.17;;;0.40;;
56037;SDS011;41907;47.848;9.000;2022-08-21T13:26:43;0.32;;;0.20;;
56037;SDS011;41907;47.848;9.000;2022-08-21T13:29:12;0.70;;;0.70;;
56037;SDS011;41907;47.848;9.000;2022-08-21T13:31:42;0.70;;;0.70;;
56037;SDS011;41907;47.848;9.000;2022-08-21T13:34:12;0.30;;;0.28;;
56037;SDS011;41907;47.848;9.000;2022-08-21T13:36:41;0.65;;;0.47;;
56037;SDS011;41907;47.848;9.000;2022-08-21T13:39:08;0.70;;;0.40;;
56037;SDS011;41907;47.848;9.000;2022-08-21T13:41:40;0.88;;;0.50;;
56037;SDS011;41907;47.848;9.000;2022-08-21T13:44:43;0.30;;;0.30;;
56037;SDS011;41907;47.848;9.000;2022-08-21T13:47:04;0.77;;;0.43;;
56037;SDS011;41907;47.848;9.000;2022-08-21T13:49:32;0.30;;;0.30;;
56037;SDS011;41907;47.848;9.000;2022-08-21T13:52:00;0.93;;;0.40;;
56037;SDS011;41907;47.848;9.000;2022-08-21T13:54:34;0.40;;;0.40;;
56037;SDS011;41907;47.848;9.000;2022-08-21T13:57:14;1.67;;;0.50;;
56037;SDS011;41907;47.848;9.000;2022-08-21T13:59:41;0.68;;;0.40;;
56037;SDS011;41907;47.848;9.000;2022-08-21T14:02:11;0.68;;;0.68;;
56037;SDS011;41907;47.848;9.000;2022-08-21T14:04:56;1.55;;;0.70;;
56037;SDS011;41907;47.848;9.000;2022-08-21T14:07:39;1.40;;;0.68;;
56037;SDS011;41907;47.848;9.000;2022-08-21T14:10:07;1.00;;;0.73;;
56037;SDS011;41907;47.848;9.000;2022-08-21T14:15:23;1.15;;;0.70;;
56037;SDS011;41907;47.848;9.000;2022-08-21T14:17:53;0.47;;;0.38;;
56037;SDS011;41907;47.848;9.000;2022-08-21T14:20:26;2.33;;;0.80;;
56037;SDS011;41907;47.848;9.000;2022-08-21T14:22:54;1.63;;;0.60;;
56037;SDS011;41907;47.848;9.000;2022-08-21T14:32:46;0.57;;;0.50;;
56037;SDS011;41907;47.848;9.000;2022-08-21T14:35:11;0.55;;;0.52;;
56037;SDS011;41907;47.848;9.000;2022-08-21T14:37:40;1.33;;;0.57;;
56037;SDS011;41907;47.848;9.000;2022-08-21T14:40:07;0.80;;;0.63;;
56037;SDS011;41907;47.848;9.000;2022-08-21T14:42:33;2.95;;;0.73;;
56037;SDS011;41907;47.848;9.000;2022-08-21T14:45:00;0.70;;;0.70;;
56037;SDS011;41907;47.848;9.000;2022-08-21T14:47:30;0.88;;;0.60;;
56037;SDS011;41907;47.848;9.000;2022-08-21T14:49:55;0.70;;;0.60;;
56037;SDS011;41907;47.848;9.000;2022-08-21T14:52:21;0.80;;;0.60;;
56037;SDS011;41907;47.848;9.000;2022-08-21T14:54:47;0.52;;;0.43;;
56037;SDS011;41907;47.848;9.000;2022-08-21T14:57:13;2.40;;;1.08;;
56037;SDS011;41907;47.848;9.000;2022-08-21T14:59:38;1.38;;;1.00;;
56037;SDS011;41907;47.848;9.000;2022-08-21T15:02:05;2.20;;;0.85;;
56037;SDS011;41907;47.848;9.000;2022-08-21T15:04:32;1.10;;;0.50;;
56037;SDS011;41907;47.848;9.000;2022-08-21T15:06:58;0.70;;;0.70;;
56037;SDS011;41907;47.848;9.000;2022-08-21T15:09:24;2.28;;;0.82;;
56037;SDS011;41907;47.848;9.000;2022-08-21T15:11:49;0.70;;;0.57;;
56037;SDS011;41907;47.848;9.000;2022-08-21T15:14:19;2.63;;;1.02;;
56037;SDS011;41907;47.848;9.000;2022-08-21T15:16:47;2.00;;;0.70;;
56037;SDS011;41907;47.848;9.000;2022-08-21T15:19:13;1.08;;;0.70;;
56037;SDS011;41907;47.848;9.000;2022-08-21T15:21:38;1.52;;;0.70;;
56037;SDS011;41907;47.848;9.000;2022-08-21T15:24:04;1.20;;;0.90;;
56037;SDS011;41907;47.848;9.000;2022-08-21T15:26:29;0.93;;;0.80;;
56037;SDS011;41907;47.848;9.000;2022-08-21T15:28:55;0.98;;;0.60;;
56037;SDS011;41907;47.848;9.000;2022-08-21T15:31:20;1.23;;;0.60;;
56037;SDS011;41907;47.848;9.000;2022-08-21T15:33:46;0.65;;;0.65;;
56037;SDS011;41907;47.848;9.000;2022-08-21T15:36:11;2.10;;;1.45;;
56037;SDS011;41907;47.848;9.000;2022-08-21T15:38:36;2.63;;;1.70;;
56037;SDS011;41907;47.848;9.000;2022-08-21T15:41:02;3.80;;;2.50;;
56037;SDS011;41907;47.848;9.000;2022-08-21T15:43:38;2.22;;;1.70;;
56037;SDS011;41907;47.848;9.000;2022-08-21T15:46:08;0.82;;;0.73;;
56037;SDS011;41907;47.848;9.000;2022-08-21T15:48:37;0.77;;;0.77;;
56037;SDS011;41907;47.848;9.000;2022-08-21T15:51:02;1.58;;;1.08;;
56037;SDS011;41907;47.848;9.000;2022-08-21T15:53:27;1.60;;;0.90;;
56037;SDS011;41907;47.848;9.000;2022-08-21T15:55:53;1.10;;;0.98;;
56037;SDS011;41907;47.848;9.000;2022-08-21T15:58:19;0.75;;;0.75;;
56037;SDS011;41907;47.848;9.000;2022-08-21T16:00:45;2.10;;;1.00;;
56037;SDS011;41907;47.848;9.000;2022-08-21T16:03:12;4.20;;;1.30;;
56037;SDS011;41907;47.848;9.000;2022-08-21T16:05:41;2.50;;;1.08;;
56037;SDS011;41907;47.848;9.000;2022-08-21T16:08:07;1.17;;;0.80;;
56037;SDS011;41907;47.848;9.000;2022-08-21T16:10:34;1.98;;;1.15;;
56037;SDS011;41907;47.848;9.000;2022-08-21T16:13:02;0.88;;;0.88;;
56037;SDS011;41907;47.848;9.000;2022-08-21T16:15:29;2.05;;;1.10;;
56037;SDS011;41907;47.848;9.000;2022-08-21T16:17:55;2.45;;;1.00;;
56037;SDS011;41907;47.848;9.000;2022-08-21T16:20:24;1.70;;;0.80;;
56037;SDS011;41907;47.848;9.000;2022-08-21T16:22:52;1.42;;;0.90;;
56037;SDS011;41907;47.848;9.000;2022-08-21T16:25:19;1.80;;;0.85;;